Terminal Aerodrome Forecast
Issued by NWS

Home | Current Version | Previous Version | Text Only | Print | Product List | Glossary On
Versions: 1 2 3 4 5 6 7 8 9 10 11 12 13 14 15 16 17 18 19
008
FTPA31 PHFO 191730
TAFHLI
TAF
PHLI 191730Z 1918/2018 07012KT P6SM VCSH SCT015 BKN025 BKN045
     FM200600 07015G25KT 6SM SHRA BR BKN015 OVC025=

USA.gov is the U.S. government's official web portal to all federal, state and local government web resources and services.